sensor_id;sensor_type;location;lat;lon;timestamp;P1;durP1;ratioP1;P2;durP2;ratioP2
76725;SDS011;65651;53.154;17.916;2023-08-07T00:02:14;2.80;;;0.60;;
76725;SDS011;65651;53.154;17.916;2023-08-07T00:04:44;1.20;;;0.60;;
76725;SDS011;65651;53.154;17.916;2023-08-07T00:07:11;1.30;;;0.60;;
76725;SDS011;65651;53.154;17.916;2023-08-07T00:09:39;1.10;;;0.50;;
76725;SDS011;65651;53.154;17.916;2023-08-07T00:12:06;1.30;;;0.70;;
76725;SDS011;65651;53.154;17.916;2023-08-07T00:14:34;2.20;;;0.70;;
76725;SDS011;65651;53.154;17.916;2023-08-07T00:17:01;1.30;;;0.50;;
76725;SDS011;65651;53.154;17.916;2023-08-07T00:19:29;4.40;;;1.00;;
76725;SDS011;65651;53.154;17.916;2023-08-07T00:21:57;1.80;;;0.50;;
76725;SDS011;65651;53.154;17.916;2023-08-07T00:24:24;2.80;;;0.60;;
76725;SDS011;65651;53.154;17.916;2023-08-07T00:26:52;1.30;;;0.60;;
76725;SDS011;65651;53.154;17.916;2023-08-07T00:29:20;2.40;;;0.70;;
76725;SDS011;65651;53.154;17.916;2023-08-07T00:31:47;2.00;;;0.90;;
76725;SDS011;65651;53.154;17.916;2023-08-07T00:34:17;2.90;;;0.90;;
76725;SDS011;65651;53.154;17.916;2023-08-07T00:36:45;1.30;;;0.70;;
76725;SDS011;65651;53.154;17.916;2023-08-07T00:39:12;1.50;;;0.50;;
76725;SDS011;65651;53.154;17.916;2023-08-07T00:41:41;1.20;;;0.60;;
76725;SDS011;65651;53.154;17.916;2023-08-07T00:44:09;2.50;;;0.50;;
76725;SDS011;65651;53.154;17.916;2023-08-07T00:46:36;2.00;;;0.80;;
76725;SDS011;65651;53.154;17.916;2023-08-07T00:49:06;1.10;;;0.60;;
76725;SDS011;65651;53.154;17.916;2023-08-07T00:51:36;2.40;;;0.70;;
76725;SDS011;65651;53.154;17.916;2023-08-07T00:54:05;1.60;;;0.70;;
76725;SDS011;65651;53.154;17.916;2023-08-07T00:56:34;2.90;;;0.70;;
76725;SDS011;65651;53.154;17.916;2023-08-07T00:59:01;1.50;;;0.80;;
76725;SDS011;65651;53.154;17.916;2023-08-07T01:01:29;4.60;;;1.10;;
76725;SDS011;65651;53.154;17.916;2023-08-07T01:03:57;1.10;;;0.60;;
76725;SDS011;65651;53.154;17.916;2023-08-07T01:06:25;1.30;;;0.70;;
76725;SDS011;65651;53.154;17.916;2023-08-07T01:08:53;4.00;;;0.90;;
76725;SDS011;65651;53.154;17.916;2023-08-07T01:11:22;1.50;;;0.70;;
76725;SDS011;65651;53.154;17.916;2023-08-07T01:19:24;1.10;;;0.40;;
76725;SDS011;65651;53.154;17.916;2023-08-07T01:22:05;1.20;;;0.60;;
76725;SDS011;65651;53.154;17.916;2023-08-07T01:24:39;3.10;;;0.50;;
76725;SDS011;65651;53.154;17.916;2023-08-07T01:35:33;0.70;;;0.30;;
76725;SDS011;65651;53.154;17.916;2023-08-07T01:38:03;1.40;;;0.40;;
76725;SDS011;65651;53.154;17.916;2023-08-07T01:40:32;0.70;;;0.40;;
76725;SDS011;65651;53.154;17.916;2023-08-07T01:42:59;1.40;;;0.60;;
76725;SDS011;65651;53.154;17.916;2023-08-07T01:45:28;0.50;;;0.30;;
76725;SDS011;65651;53.154;17.916;2023-08-07T01:47:56;1.30;;;0.50;;
76725;SDS011;65651;53.154;17.916;2023-08-07T01:50:24;2.20;;;0.40;;
76725;SDS011;65651;53.154;17.916;2023-08-07T01:52:51;0.70;;;0.40;;
76725;SDS011;65651;53.154;17.916;2023-08-07T01:55:21;0.70;;;0.40;;
76725;SDS011;65651;53.154;17.916;2023-08-07T01:57:52;1.00;;;0.50;;
76725;SDS011;65651;53.154;17.916;2023-08-07T02:00:22;1.10;;;0.50;;
76725;SDS011;65651;53.154;17.916;2023-08-07T02:02:50;1.80;;;0.80;;
76725;SDS011;65651;53.154;17.916;2023-08-07T02:05:17;0.70;;;0.40;;
76725;SDS011;65651;53.154;17.916;2023-08-07T02:07:45;2.10;;;0.40;;
76725;SDS011;65651;53.154;17.916;2023-08-07T02:10:12;2.00;;;0.50;;
76725;SDS011;65651;53.154;17.916;2023-08-07T02:12:39;0.70;;;0.40;;
76725;SDS011;65651;53.154;17.916;2023-08-07T02:15:07;1.10;;;0.50;;
76725;SDS011;65651;53.154;17.916;2023-08-07T02:17:34;2.00;;;0.50;;
76725;SDS011;65651;53.154;17.916;2023-08-07T02:20:04;0.90;;;0.50;;
76725;SDS011;65651;53.154;17.916;2023-08-07T02:22:32;1.20;;;0.50;;
76725;SDS011;65651;53.154;17.916;2023-08-07T02:25:00;0.90;;;0.50;;
76725;SDS011;65651;53.154;17.916;2023-08-07T02:27:27;2.70;;;0.40;;
76725;SDS011;65651;53.154;17.916;2023-08-07T02:29:54;1.20;;;0.40;;
76725;SDS011;65651;53.154;17.916;2023-08-07T02:32:23;0.70;;;0.40;;
76725;SDS011;65651;53.154;17.916;2023-08-07T02:34:51;1.00;;;0.40;;
76725;SDS011;65651;53.154;17.916;2023-08-07T02:37:18;0.60;;;0.40;;
76725;SDS011;65651;53.154;17.916;2023-08-07T02:39:47;0.70;;;0.40;;
76725;SDS011;65651;53.154;17.916;2023-08-07T02:42:15;1.00;;;0.50;;
76725;SDS011;65651;53.154;17.916;2023-08-07T02:44:43;0.70;;;0.40;;
76725;SDS011;65651;53.154;17.916;2023-08-07T02:47:11;0.80;;;0.40;;
76725;SDS011;65651;53.154;17.916;2023-08-07T02:49:39;1.00;;;0.40;;
76725;SDS011;65651;53.154;17.916;2023-08-07T02:52:06;0.80;;;0.40;;
76725;SDS011;65651;53.154;17.916;2023-08-07T02:54:34;1.60;;;0.50;;
76725;SDS011;65651;53.154;17.916;2023-08-07T02:57:01;1.20;;;0.60;;
76725;SDS011;65651;53.154;17.916;2023-08-07T02:59:28;2.00;;;0.50;;
76725;SDS011;65651;53.154;17.916;2023-08-07T03:01:58;2.20;;;0.50;;
76725;SDS011;65651;53.154;17.916;2023-08-07T03:04:26;0.90;;;0.50;;
76725;SDS011;65651;53.154;17.916;2023-08-07T03:06:53;1.00;;;0.40;;
76725;SDS011;65651;53.154;17.916;2023-08-07T03:09:21;1.30;;;0.40;;
76725;SDS011;65651;53.154;17.916;2023-08-07T03:11:49;1.70;;;0.60;;
76725;SDS011;65651;53.154;17.916;2023-08-07T03:14:16;0.90;;;0.50;;
76725;SDS011;65651;53.154;17.916;2023-08-07T03:16:46;1.00;;;0.50;;
76725;SDS011;65651;53.154;17.916;2023-08-07T03:19:14;0.80;;;0.50;;
76725;SDS011;65651;53.154;17.916;2023-08-07T03:21:42;1.00;;;0.50;;
76725;SDS011;65651;53.154;17.916;2023-08-07T03:24:11;1.20;;;0.50;;
76725;SDS011;65651;53.154;17.916;2023-08-07T03:26:39;1.40;;;0.70;;
76725;SDS011;65651;53.154;17.916;2023-08-07T03:29:07;1.20;;;0.70;;
76725;SDS011;65651;53.154;17.916;2023-08-07T03:31:37;3.20;;;0.60;;
76725;SDS011;65651;53.154;17.916;2023-08-07T03:34:05;1.00;;;0.50;;
76725;SDS011;65651;53.154;17.916;2023-08-07T03:36:33;1.20;;;0.70;;
76725;SDS011;65651;53.154;17.916;2023-08-07T03:39:01;1.00;;;0.50;;
76725;SDS011;65651;53.154;17.916;2023-08-07T03:41:30;1.10;;;0.50;;
76725;SDS011;65651;53.154;17.916;2023-08-07T03:44:00;1.40;;;0.60;;
76725;SDS011;65651;53.154;17.916;2023-08-07T03:46:28;1.90;;;0.80;;
76725;SDS011;65651;53.154;17.916;2023-08-07T03:48:55;2.50;;;0.50;;
76725;SDS011;65651;53.154;17.916;2023-08-07T03:51:23;1.10;;;0.50;;
76725;SDS011;65651;53.154;17.916;2023-08-07T03:53:52;1.50;;;0.60;;
76725;SDS011;65651;53.154;17.916;2023-08-07T03:56:21;1.40;;;0.60;;
76725;SDS011;65651;53.154;17.916;2023-08-07T03:58:48;1.20;;;0.70;;
76725;SDS011;65651;53.154;17.916;2023-08-07T04:01:17;1.40;;;0.60;;
76725;SDS011;65651;53.154;17.916;2023-08-07T04:03:47;0.90;;;0.40;;
76725;SDS011;65651;53.154;17.916;2023-08-07T04:06:15;1.10;;;0.50;;
76725;SDS011;65651;53.154;17.916;2023-08-07T04:08:45;3.20;;;0.40;;
76725;SDS011;65651;53.154;17.916;2023-08-07T04:11:12;1.20;;;0.60;;
76725;SDS011;65651;53.154;17.916;2023-08-07T04:13:40;3.10;;;0.80;;
76725;SDS011;65651;53.154;17.916;2023-08-07T04:16:08;1.40;;;0.70;;
76725;SDS011;65651;53.154;17.916;2023-08-07T04:18:36;1.40;;;0.60;;
76725;SDS011;65651;53.154;17.916;2023-08-07T04:21:04;0.80;;;0.50;;
76725;SDS011;65651;53.154;17.916;2023-08-07T04:23:32;3.70;;;0.50;;
76725;SDS011;65651;53.154;17.916;2023-08-07T04:25:59;1.10;;;0.50;;
76725;SDS011;65651;53.154;17.916;2023-08-07T04:28:28;5.20;;;0.90;;
76725;SDS011;65651;53.154;17.916;2023-08-07T04:30:56;2.00;;;0.70;;
76725;SDS011;65651;53.154;17.916;2023-08-07T04:33:24;2.30;;;0.60;;
76725;SDS011;65651;53.154;17.916;2023-08-07T04:35:51;1.30;;;0.50;;
76725;SDS011;65651;53.154;17.916;2023-08-07T04:38:19;3.50;;;0.70;;
76725;SDS011;65651;53.154;17.916;2023-08-07T04:40:49;1.50;;;0.50;;
76725;SDS011;65651;53.154;17.916;2023-08-07T04:43:18;1.30;;;0.60;;
76725;SDS011;65651;53.154;17.916;2023-08-07T04:45:52;1.20;;;0.60;;
76725;SDS011;65651;53.154;17.916;2023-08-07T04:48:20;1.10;;;0.50;;
76725;SDS011;65651;53.154;17.916;2023-08-07T04:50:49;1.50;;;0.80;;
76725;SDS011;65651;53.154;17.916;2023-08-07T04:53:16;1.90;;;0.70;;
76725;SDS011;65651;53.154;17.916;2023-08-07T04:55:43;1.40;;;0.70;;
76725;SDS011;65651;53.154;17.916;2023-08-07T04:58:11;1.80;;;0.50;;
76725;SDS011;65651;53.154;17.916;2023-08-07T05:00:39;1.50;;;0.90;;
76725;SDS011;65651;53.154;17.916;2023-08-07T05:03:07;2.70;;;0.60;;
76725;SDS011;65651;53.154;17.916;2023-08-07T05:05:34;2.70;;;1.10;;
76725;SDS011;65651;53.154;17.916;2023-08-07T05:08:02;3.90;;;1.00;;
76725;SDS011;65651;53.154;17.916;2023-08-07T05:10:30;2.60;;;0.90;;
76725;SDS011;65651;53.154;17.916;2023-08-07T05:12:57;2.40;;;0.90;;
76725;SDS011;65651;53.154;17.916;2023-08-07T05:15:29;1.20;;;0.70;;
76725;SDS011;65651;53.154;17.916;2023-08-07T05:17:58;1.60;;;0.70;;
76725;SDS011;65651;53.154;17.916;2023-08-07T05:20:28;1.90;;;0.60;;
76725;SDS011;65651;53.154;17.916;2023-08-07T05:22:59;1.50;;;0.90;;
76725;SDS011;65651;53.154;17.916;2023-08-07T05:25:26;2.30;;;0.90;;
76725;SDS011;65651;53.154;17.916;2023-08-07T05:27:53;1.50;;;0.70;;
76725;SDS011;65651;53.154;17.916;2023-08-07T05:30:21;1.40;;;0.80;;
76725;SDS011;65651;53.154;17.916;2023-08-07T05:32:50;3.00;;;0.90;;
76725;SDS011;65651;53.154;17.916;2023-08-07T05:35:17;3.50;;;0.60;;
76725;SDS011;65651;53.154;17.916;2023-08-07T05:37:45;2.50;;;0.90;;
76725;SDS011;65651;53.154;17.916;2023-08-07T05:40:16;1.40;;;0.80;;
76725;SDS011;65651;53.154;17.916;2023-08-07T05:42:43;1.90;;;1.20;;
76725;SDS011;65651;53.154;17.916;2023-08-07T05:45:11;1.90;;;0.90;;
76725;SDS011;65651;53.154;17.916;2023-08-07T05:47:39;2.10;;;0.80;;
76725;SDS011;65651;53.154;17.916;2023-08-07T05:50:06;1.40;;;0.80;;
76725;SDS011;65651;53.154;17.916;2023-08-07T05:52:34;3.70;;;0.90;;
76725;SDS011;65651;53.154;17.916;2023-08-07T05:55:03;2.80;;;1.10;;
76725;SDS011;65651;53.154;17.916;2023-08-07T05:57:31;2.90;;;1.20;;
76725;SDS011;65651;53.154;17.916;2023-08-07T05:59:59;3.00;;;1.40;;
76725;SDS011;65651;53.154;17.916;2023-08-07T06:02:26;2.40;;;1.20;;
76725;SDS011;65651;53.154;17.916;2023-08-07T06:04:54;1.70;;;0.90;;
76725;SDS011;65651;53.154;17.916;2023-08-07T06:07:25;3.70;;;1.20;;
76725;SDS011;65651;53.154;17.916;2023-08-07T06:09:52;1.80;;;1.10;;
76725;SDS011;65651;53.154;17.916;2023-08-07T06:12:20;2.00;;;0.80;;
76725;SDS011;65651;53.154;17.916;2023-08-07T06:14:47;2.30;;;0.80;;
76725;SDS011;65651;53.154;17.916;2023-08-07T06:17:17;2.10;;;1.20;;
76725;SDS011;65651;53.154;17.916;2023-08-07T06:19:45;1.80;;;1.00;;
76725;SDS011;65651;53.154;17.916;2023-08-07T06:22:12;3.20;;;0.90;;
76725;SDS011;65651;53.154;17.916;2023-08-07T06:24:40;3.90;;;1.60;;
76725;SDS011;65651;53.154;17.916;2023-08-07T06:27:07;2.90;;;1.00;;
76725;SDS011;65651;53.154;17.916;2023-08-07T06:29:35;2.80;;;1.00;;
76725;SDS011;65651;53.154;17.916;2023-08-07T06:32:02;3.00;;;1.20;;
76725;SDS011;65651;53.154;17.916;2023-08-07T06:34:31;2.60;;;0.80;;
76725;SDS011;65651;53.154;17.916;2023-08-07T06:36:58;2.10;;;0.80;;
76725;SDS011;65651;53.154;17.916;2023-08-07T06:39:26;2.90;;;1.10;;
76725;SDS011;65651;53.154;17.916;2023-08-07T06:41:53;3.90;;;1.00;;
76725;SDS011;65651;53.154;17.916;2023-08-07T06:44:21;1.70;;;1.10;;
76725;SDS011;65651;53.154;17.916;2023-08-07T06:46:48;2.40;;;0.90;;
76725;SDS011;65651;53.154;17.916;2023-08-07T06:49:16;3.50;;;1.10;;
76725;SDS011;65651;53.154;17.916;2023-08-07T06:51:44;2.30;;;1.20;;
76725;SDS011;65651;53.154;17.916;2023-08-07T06:54:12;1.70;;;0.90;;
76725;SDS011;65651;53.154;17.916;2023-08-07T06:56:39;3.10;;;1.00;;
76725;SDS011;65651;53.154;17.916;2023-08-07T06:59:12;1.50;;;0.70;;
76725;SDS011;65651;53.154;17.916;2023-08-07T07:01:41;1.90;;;0.70;;
76725;SDS011;65651;53.154;17.916;2023-08-07T07:04:08;1.60;;;0.90;;
76725;SDS011;65651;53.154;17.916;2023-08-07T07:06:37;3.10;;;0.90;;
76725;SDS011;65651;53.154;17.916;2023-08-07T07:09:05;1.30;;;0.80;;
76725;SDS011;65651;53.154;17.916;2023-08-07T07:11:32;1.90;;;1.20;;
76725;SDS011;65651;53.154;17.916;2023-08-07T07:14:03;2.30;;;0.90;;
76725;SDS011;65651;53.154;17.916;2023-08-07T07:16:30;3.50;;;0.80;;
76725;SDS011;65651;53.154;17.916;2023-08-07T07:18:58;2.00;;;0.90;;
76725;SDS011;65651;53.154;17.916;2023-08-07T07:21:26;2.90;;;0.90;;
76725;SDS011;65651;53.154;17.916;2023-08-07T07:23:54;1.50;;;0.90;;
76725;SDS011;65651;53.154;17.916;2023-08-07T07:26:21;2.40;;;0.70;;
76725;SDS011;65651;53.154;17.916;2023-08-07T07:28:51;2.20;;;0.80;;
76725;SDS011;65651;53.154;17.916;2023-08-07T07:31:18;2.50;;;1.40;;
76725;SDS011;65651;53.154;17.916;2023-08-07T07:33:47;2.50;;;0.80;;
76725;SDS011;65651;53.154;17.916;2023-08-07T07:36:15;1.90;;;1.00;;
76725;SDS011;65651;53.154;17.916;2023-08-07T07:38:45;3.20;;;0.90;;
76725;SDS011;65651;53.154;17.916;2023-08-07T07:41:14;2.20;;;1.10;;
76725;SDS011;65651;53.154;17.916;2023-08-07T07:43:42;2.10;;;0.80;;
76725;SDS011;65651;53.154;17.916;2023-08-07T07:46:10;4.00;;;0.70;;
76725;SDS011;65651;53.154;17.916;2023-08-07T07:48:37;1.40;;;0.80;;
76725;SDS011;65651;53.154;17.916;2023-08-07T07:51:05;2.80;;;0.90;;
76725;SDS011;65651;53.154;17.916;2023-08-07T07:53:35;5.00;;;0.80;;
76725;SDS011;65651;53.154;17.916;2023-08-07T07:56:02;2.40;;;0.70;;
76725;SDS011;65651;53.154;17.916;2023-08-07T07:58:30;1.50;;;0.70;;
76725;SDS011;65651;53.154;17.916;2023-08-07T08:00:57;2.20;;;0.80;;
76725;SDS011;65651;53.154;17.916;2023-08-07T08:03:25;1.20;;;0.60;;
76725;SDS011;65651;53.154;17.916;2023-08-07T08:05:55;1.80;;;0.90;;
76725;SDS011;65651;53.154;17.916;2023-08-07T08:08:26;2.10;;;0.80;;
76725;SDS011;65651;53.154;17.916;2023-08-07T08:11:00;3.40;;;0.90;;
76725;SDS011;65651;53.154;17.916;2023-08-07T08:13:28;2.30;;;1.10;;
76725;SDS011;65651;53.154;17.916;2023-08-07T08:15:55;1.40;;;0.80;;
76725;SDS011;65651;53.154;17.916;2023-08-07T08:18:26;1.80;;;1.10;;
76725;SDS011;65651;53.154;17.916;2023-08-07T08:20:54;1.20;;;0.80;;
76725;SDS011;65651;53.154;17.916;2023-08-07T08:23:21;2.20;;;1.10;;
76725;SDS011;65651;53.154;17.916;2023-08-07T08:25:50;2.10;;;0.90;;
76725;SDS011;65651;53.154;17.916;2023-08-07T08:28:20;2.10;;;1.10;;
76725;SDS011;65651;53.154;17.916;2023-08-07T08:30:51;2.10;;;1.10;;
76725;SDS011;65651;53.154;17.916;2023-08-07T08:33:18;2.20;;;0.90;;
76725;SDS011;65651;53.154;17.916;2023-08-07T08:35:46;2.00;;;1.30;;
76725;SDS011;65651;53.154;17.916;2023-08-07T08:38:16;2.00;;;1.10;;
76725;SDS011;65651;53.154;17.916;2023-08-07T08:40:44;2.00;;;0.90;;
76725;SDS011;65651;53.154;17.916;2023-08-07T08:43:13;3.00;;;1.10;;
76725;SDS011;65651;53.154;17.916;2023-08-07T08:45:41;2.50;;;0.90;;
76725;SDS011;65651;53.154;17.916;2023-08-07T08:48:11;2.30;;;1.30;;
76725;SDS011;65651;53.154;17.916;2023-08-07T08:50:49;2.70;;;1.40;;
76725;SDS011;65651;53.154;17.916;2023-08-07T08:53:17;2.70;;;1.30;;
76725;SDS011;65651;53.154;17.916;2023-08-07T08:55:48;2.50;;;1.30;;
76725;SDS011;65651;53.154;17.916;2023-08-07T08:58:15;2.80;;;0.90;;
76725;SDS011;65651;53.154;17.916;2023-08-07T09:00:51;2.30;;;0.90;;
76725;SDS011;65651;53.154;17.916;2023-08-07T09:03:19;3.00;;;1.30;;
76725;SDS011;65651;53.154;17.916;2023-08-07T09:05:48;2.80;;;0.80;;
76725;SDS011;65651;53.154;17.916;2023-08-07T09:08:20;2.20;;;0.70;;
76725;SDS011;65651;53.154;17.916;2023-08-07T09:10:49;2.80;;;0.80;;
76725;SDS011;65651;53.154;17.916;2023-08-07T09:13:19;2.80;;;0.70;;
76725;SDS011;65651;53.154;17.916;2023-08-07T09:15:51;2.90;;;0.40;;
76725;SDS011;65651;53.154;17.916;2023-08-07T09:18:22;1.60;;;0.70;;
76725;SDS011;65651;53.154;17.916;2023-08-07T09:20:50;1.90;;;0.70;;
76725;SDS011;65651;53.154;17.916;2023-08-07T09:23:18;1.30;;;0.70;;
76725;SDS011;65651;53.154;17.916;2023-08-07T09:25:46;5.80;;;0.60;;
76725;SDS011;65651;53.154;17.916;2023-08-07T09:28:14;1.10;;;0.50;;
76725;SDS011;65651;53.154;17.916;2023-08-07T09:30:42;1.20;;;0.60;;
76725;SDS011;65651;53.154;17.916;2023-08-07T09:33:11;3.00;;;0.80;;
76725;SDS011;65651;53.154;17.916;2023-08-07T09:35:42;1.50;;;0.60;;
76725;SDS011;65651;53.154;17.916;2023-08-07T09:38:10;1.70;;;0.80;;
76725;SDS011;65651;53.154;17.916;2023-08-07T09:40:41;1.20;;;0.60;;
76725;SDS011;65651;53.154;17.916;2023-08-07T09:43:10;2.50;;;0.80;;
76725;SDS011;65651;53.154;17.916;2023-08-07T09:45:48;1.90;;;0.70;;
76725;SDS011;65651;53.154;17.916;2023-08-07T09:48:22;1.30;;;0.50;;
76725;SDS011;65651;53.154;17.916;2023-08-07T09:50:58;1.70;;;0.60;;
76725;SDS011;65651;53.154;17.916;2023-08-07T09:53:30;1.70;;;0.90;;
76725;SDS011;65651;53.154;17.916;2023-08-07T09:55:59;1.50;;;0.70;;
76725;SDS011;65651;53.154;17.916;2023-08-07T09:58:28;1.20;;;0.50;;
76725;SDS011;65651;53.154;17.916;2023-08-07T10:00:58;2.90;;;0.70;;
76725;SDS011;65651;53.154;17.916;2023-08-07T10:03:27;2.30;;;0.80;;
76725;SDS011;65651;53.154;17.916;2023-08-07T10:05:55;1.20;;;0.70;;
76725;SDS011;65651;53.154;17.916;2023-08-07T10:08:23;1.80;;;0.90;;
76725;SDS011;65651;53.154;17.916;2023-08-07T10:10:51;3.60;;;0.80;;
76725;SDS011;65651;53.154;17.916;2023-08-07T10:13:22;1.50;;;0.80;;
76725;SDS011;65651;53.154;17.916;2023-08-07T10:15:50;2.60;;;0.90;;
76725;SDS011;65651;53.154;17.916;2023-08-07T10:18:19;1.60;;;0.70;;
76725;SDS011;65651;53.154;17.916;2023-08-07T10:20:49;1.80;;;0.80;;
76725;SDS011;65651;53.154;17.916;2023-08-07T10:23:18;2.50;;;1.00;;
76725;SDS011;65651;53.154;17.916;2023-08-07T10:25:45;1.70;;;0.90;;
76725;SDS011;65651;53.154;17.916;2023-08-07T10:28:17;5.70;;;1.30;;
76725;SDS011;65651;53.154;17.916;2023-08-07T10:30:49;1.60;;;0.80;;
76725;SDS011;65651;53.154;17.916;2023-08-07T10:33:17;4.10;;;1.10;;
76725;SDS011;65651;53.154;17.916;2023-08-07T10:35:49;2.70;;;0.80;;
76725;SDS011;65651;53.154;17.916;2023-08-07T10:38:22;1.60;;;0.60;;
76725;SDS011;65651;53.154;17.916;2023-08-07T10:41:10;3.70;;;0.80;;
76725;SDS011;65651;53.154;17.916;2023-08-07T10:43:43;2.40;;;0.70;;
76725;SDS011;65651;53.154;17.916;2023-08-07T10:46:14;2.40;;;0.50;;
76725;SDS011;65651;53.154;17.916;2023-08-07T10:48:45;4.70;;;1.20;;
76725;SDS011;65651;53.154;17.916;2023-08-07T10:51:15;1.40;;;1.00;;
76725;SDS011;65651;53.154;17.916;2023-08-07T10:53:46;2.60;;;0.90;;
76725;SDS011;65651;53.154;17.916;2023-08-07T10:59:07;1.80;;;0.90;;
76725;SDS011;65651;53.154;17.916;2023-08-07T11:04:10;3.30;;;1.00;;
76725;SDS011;65651;53.154;17.916;2023-08-07T11:06:40;1.80;;;0.60;;
76725;SDS011;65651;53.154;17.916;2023-08-07T11:09:09;2.00;;;1.10;;
76725;SDS011;65651;53.154;17.916;2023-08-07T11:14:12;2.20;;;1.20;;
76725;SDS011;65651;53.154;17.916;2023-08-07T11:16:45;3.20;;;1.60;;
76725;SDS011;65651;53.154;17.916;2023-08-07T11:19:14;2.80;;;1.00;;
76725;SDS011;65651;53.154;17.916;2023-08-07T11:21:44;1.80;;;0.90;;
76725;SDS011;65651;53.154;17.916;2023-08-07T11:24:12;5.80;;;1.30;;
76725;SDS011;65651;53.154;17.916;2023-08-07T11:26:42;2.40;;;1.10;;
76725;SDS011;65651;53.154;17.916;2023-08-07T11:29:10;2.10;;;0.70;;
76725;SDS011;65651;53.154;17.916;2023-08-07T11:31:42;4.10;;;1.10;;
76725;SDS011;65651;53.154;17.916;2023-08-07T11:34:12;5.40;;;0.90;;
76725;SDS011;65651;53.154;17.916;2023-08-07T11:36:45;1.80;;;0.70;;
76725;SDS011;65651;53.154;17.916;2023-08-07T11:39:13;1.80;;;0.60;;
76725;SDS011;65651;53.154;17.916;2023-08-07T11:41:41;4.30;;;0.90;;
76725;SDS011;65651;53.154;17.916;2023-08-07T11:44:12;2.90;;;1.10;;
76725;SDS011;65651;53.154;17.916;2023-08-07T11:46:40;4.10;;;1.20;;
76725;SDS011;65651;53.154;17.916;2023-08-07T11:49:09;3.70;;;1.50;;
76725;SDS011;65651;53.154;17.916;2023-08-07T11:51:37;3.80;;;1.00;;
76725;SDS011;65651;53.154;17.916;2023-08-07T11:54:05;2.70;;;1.10;;
76725;SDS011;65651;53.154;17.916;2023-08-07T11:56:34;2.90;;;1.00;;
76725;SDS011;65651;53.154;17.916;2023-08-07T11:59:01;2.20;;;1.00;;
76725;SDS011;65651;53.154;17.916;2023-08-07T12:01:30;2.50;;;1.20;;
76725;SDS011;65651;53.154;17.916;2023-08-07T12:04:09;2.90;;;1.30;;
76725;SDS011;65651;53.154;17.916;2023-08-07T12:06:37;2.00;;;1.00;;
76725;SDS011;65651;53.154;17.916;2023-08-07T12:09:11;2.80;;;1.10;;
76725;SDS011;65651;53.154;17.916;2023-08-07T12:11:40;3.60;;;1.40;;
76725;SDS011;65651;53.154;17.916;2023-08-07T12:14:08;2.10;;;1.00;;
76725;SDS011;65651;53.154;17.916;2023-08-07T12:16:44;4.30;;;1.40;;
76725;SDS011;65651;53.154;17.916;2023-08-07T12:19:16;4.80;;;1.10;;
76725;SDS011;65651;53.154;17.916;2023-08-07T12:21:44;3.10;;;1.20;;
76725;SDS011;65651;53.154;17.916;2023-08-07T12:24:12;2.50;;;1.00;;
76725;SDS011;65651;53.154;17.916;2023-08-07T12:26:40;2.40;;;1.10;;
76725;SDS011;65651;53.154;17.916;2023-08-07T12:29:08;2.80;;;1.30;;
76725;SDS011;65651;53.154;17.916;2023-08-07T12:31:35;2.00;;;1.20;;
76725;SDS011;65651;53.154;17.916;2023-08-07T12:34:03;3.00;;;1.20;;
76725;SDS011;65651;53.154;17.916;2023-08-07T12:36:30;5.10;;;1.10;;
76725;SDS011;65651;53.154;17.916;2023-08-07T12:38:58;2.20;;;1.00;;
76725;SDS011;65651;53.154;17.916;2023-08-07T12:41:26;2.80;;;1.20;;
76725;SDS011;65651;53.154;17.916;2023-08-07T12:43:53;3.20;;;1.10;;
76725;SDS011;65651;53.154;17.916;2023-08-07T12:46:20;3.00;;;1.70;;
76725;SDS011;65651;53.154;17.916;2023-08-07T12:48:47;2.40;;;1.20;;
76725;SDS011;65651;53.154;17.916;2023-08-07T12:51:15;2.60;;;1.30;;
76725;SDS011;65651;53.154;17.916;2023-08-07T12:53:43;3.60;;;1.10;;
76725;SDS011;65651;53.154;17.916;2023-08-07T12:56:12;5.20;;;1.80;;
76725;SDS011;65651;53.154;17.916;2023-08-07T12:58:39;1.50;;;0.90;;
76725;SDS011;65651;53.154;17.916;2023-08-07T13:01:06;5.20;;;1.10;;
76725;SDS011;65651;53.154;17.916;2023-08-07T13:03:33;4.00;;;1.00;;
76725;SDS011;65651;53.154;17.916;2023-08-07T13:06:01;4.20;;;1.00;;
76725;SDS011;65651;53.154;17.916;2023-08-07T13:08:32;3.10;;;1.30;;
76725;SDS011;65651;53.154;17.916;2023-08-07T13:11:00;2.90;;;0.90;;
76725;SDS011;65651;53.154;17.916;2023-08-07T13:13:28;3.30;;;1.20;;
76725;SDS011;65651;53.154;17.916;2023-08-07T13:15:56;4.00;;;1.10;;
76725;SDS011;65651;53.154;17.916;2023-08-07T13:18:24;2.00;;;1.00;;
76725;SDS011;65651;53.154;17.916;2023-08-07T13:20:51;3.40;;;1.10;;
76725;SDS011;65651;53.154;17.916;2023-08-07T13:23:18;1.90;;;1.00;;
76725;SDS011;65651;53.154;17.916;2023-08-07T13:25:45;2.10;;;1.20;;
76725;SDS011;65651;53.154;17.916;2023-08-07T13:28:12;2.10;;;1.00;;
76725;SDS011;65651;53.154;17.916;2023-08-07T13:30:40;2.30;;;1.30;;
76725;SDS011;65651;53.154;17.916;2023-08-07T13:33:07;8.70;;;1.30;;
76725;SDS011;65651;53.154;17.916;2023-08-07T13:35:35;2.80;;;1.20;;
76725;SDS011;65651;53.154;17.916;2023-08-07T13:38:02;1.30;;;0.90;;
76725;SDS011;65651;53.154;17.916;2023-08-07T13:40:34;4.40;;;1.20;;
76725;SDS011;65651;53.154;17.916;2023-08-07T13:43:01;1.90;;;0.90;;
76725;SDS011;65651;53.154;17.916;2023-08-07T13:45:34;3.50;;;1.30;;
76725;SDS011;65651;53.154;17.916;2023-08-07T13:48:02;3.10;;;1.00;;
76725;SDS011;65651;53.154;17.916;2023-08-07T13:50:30;2.10;;;1.10;;
76725;SDS011;65651;53.154;17.916;2023-08-07T13:52:57;5.00;;;1.30;;
76725;SDS011;65651;53.154;17.916;2023-08-07T13:55:24;2.70;;;1.00;;
76725;SDS011;65651;53.154;17.916;2023-08-07T13:57:52;4.90;;;1.10;;
76725;SDS011;65651;53.154;17.916;2023-08-07T14:00:19;4.10;;;1.30;;
76725;SDS011;65651;53.154;17.916;2023-08-07T14:02:46;3.60;;;1.40;;
76725;SDS011;65651;53.154;17.916;2023-08-07T14:05:13;2.10;;;1.10;;
76725;SDS011;65651;53.154;17.916;2023-08-07T14:07:41;1.90;;;1.10;;
76725;SDS011;65651;53.154;17.916;2023-08-07T14:10:08;4.50;;;1.40;;
76725;SDS011;65651;53.154;17.916;2023-08-07T14:12:35;2.50;;;1.10;;
76725;SDS011;65651;53.154;17.916;2023-08-07T14:15:04;2.30;;;1.30;;
76725;SDS011;65651;53.154;17.916;2023-08-07T14:17:32;3.60;;;1.00;;
76725;SDS011;65651;53.154;17.916;2023-08-07T14:20:03;2.30;;;1.10;;
76725;SDS011;65651;53.154;17.916;2023-08-07T14:22:31;2.60;;;1.00;;
76725;SDS011;65651;53.154;17.916;2023-08-07T14:24:58;1.90;;;1.10;;
76725;SDS011;65651;53.154;17.916;2023-08-07T14:27:26;3.50;;;1.20;;
76725;SDS011;65651;53.154;17.916;2023-08-07T14:29:53;1.40;;;0.90;;
76725;SDS011;65651;53.154;17.916;2023-08-07T14:32:20;3.20;;;1.10;;
76725;SDS011;65651;53.154;17.916;2023-08-07T14:34:47;4.30;;;1.40;;
76725;SDS011;65651;53.154;17.916;2023-08-07T14:37:16;2.40;;;1.20;;
76725;SDS011;65651;53.154;17.916;2023-08-07T14:39:43;3.30;;;1.00;;
76725;SDS011;65651;53.154;17.916;2023-08-07T14:42:11;3.30;;;0.80;;
76725;SDS011;65651;53.154;17.916;2023-08-07T14:44:41;5.50;;;1.00;;
76725;SDS011;65651;53.154;17.916;2023-08-07T14:47:08;2.30;;;1.00;;
76725;SDS011;65651;53.154;17.916;2023-08-07T14:49:35;3.80;;;1.00;;
76725;SDS011;65651;53.154;17.916;2023-08-07T14:52:02;4.60;;;0.90;;
76725;SDS011;65651;53.154;17.916;2023-08-07T14:54:30;4.10;;;1.20;;
76725;SDS011;65651;53.154;17.916;2023-08-07T14:56:57;2.20;;;0.90;;
76725;SDS011;65651;53.154;17.916;2023-08-07T14:59:26;1.80;;;0.80;;
76725;SDS011;65651;53.154;17.916;2023-08-07T15:01:53;2.10;;;0.90;;
76725;SDS011;65651;53.154;17.916;2023-08-07T15:04:21;4.80;;;0.70;;